sensor_id;sensor_type;location;lat;lon;timestamp;P1;durP1;ratioP1;P2;durP2;ratioP2
5678;SDS011;2862;52.560;13.566;2023-02-03T00:07:31;21.63;;;2.80;;
5678;SDS011;2862;52.560;13.566;2023-02-03T00:17:37;25.40;;;3.10;;
5678;SDS011;2862;52.560;13.566;2023-02-03T00:27:39;19.30;;;1.63;;
5678;SDS011;2862;52.560;13.566;2023-02-03T00:37:44;24.80;;;3.00;;
5678;SDS011;2862;52.560;13.566;2023-02-03T00:47:54;20.33;;;3.70;;
5678;SDS011;2862;52.560;13.566;2023-02-03T00:57:59;21.97;;;3.57;;
5678;SDS011;2862;52.560;13.566;2023-02-03T01:08:04;21.07;;;2.73;;
5678;SDS011;2862;52.560;13.566;2023-02-03T01:18:09;20.70;;;3.30;;
5678;SDS011;2862;52.560;13.566;2023-02-03T01:28:12;23.93;;;3.60;;
5678;SDS011;2862;52.560;13.566;2023-02-03T01:38:17;17.30;;;2.70;;
5678;SDS011;2862;52.560;13.566;2023-02-03T01:48:20;21.07;;;3.93;;
5678;SDS011;2862;52.560;13.566;2023-02-03T01:58:25;27.57;;;4.50;;
5678;SDS011;2862;52.560;13.566;2023-02-03T02:08:32;16.13;;;3.40;;
5678;SDS011;2862;52.560;13.566;2023-02-03T02:18:59;21.37;;;4.00;;
5678;SDS011;2862;52.560;13.566;2023-02-03T02:39:58;16.43;;;3.60;;
5678;SDS011;2862;52.560;13.566;2023-02-03T02:50:12;17.20;;;3.70;;
5678;SDS011;2862;52.560;13.566;2023-02-03T03:00:23;18.93;;;3.40;;
5678;SDS011;2862;52.560;13.566;2023-02-03T03:10:27;15.47;;;2.40;;
5678;SDS011;2862;52.560;13.566;2023-02-03T03:20:34;16.97;;;1.97;;
5678;SDS011;2862;52.560;13.566;2023-02-03T03:30:40;15.03;;;2.70;;
5678;SDS011;2862;52.560;13.566;2023-02-03T03:40:47;14.50;;;2.50;;
5678;SDS011;2862;52.560;13.566;2023-02-03T03:50:54;22.00;;;2.57;;
5678;SDS011;2862;52.560;13.566;2023-02-03T04:01:02;13.97;;;1.73;;
5678;SDS011;2862;52.560;13.566;2023-02-03T04:11:08;14.27;;;2.00;;
5678;SDS011;2862;52.560;13.566;2023-02-03T04:21:12;14.37;;;2.00;;
5678;SDS011;2862;52.560;13.566;2023-02-03T04:31:15;17.40;;;1.90;;
5678;SDS011;2862;52.560;13.566;2023-02-03T04:41:19;14.77;;;2.67;;
5678;SDS011;2862;52.560;13.566;2023-02-03T04:51:22;16.23;;;4.43;;
5678;SDS011;2862;52.560;13.566;2023-02-03T05:01:27;24.07;;;7.47;;
5678;SDS011;2862;52.560;13.566;2023-02-03T05:11:30;27.30;;;8.93;;
5678;SDS011;2862;52.560;13.566;2023-02-03T05:21:34;32.17;;;10.63;;
5678;SDS011;2862;52.560;13.566;2023-02-03T05:31:37;42.97;;;14.70;;
5678;SDS011;2862;52.560;13.566;2023-02-03T05:41:41;46.17;;;16.90;;
5678;SDS011;2862;52.560;13.566;2023-02-03T05:51:57;60.17;;;18.17;;
5678;SDS011;2862;52.560;13.566;2023-02-03T06:02:09;54.23;;;20.37;;
5678;SDS011;2862;52.560;13.566;2023-02-03T06:12:13;64.63;;;20.83;;
5678;SDS011;2862;52.560;13.566;2023-02-03T06:22:18;59.87;;;24.20;;
5678;SDS011;2862;52.560;13.566;2023-02-03T06:32:21;66.27;;;23.67;;
5678;SDS011;2862;52.560;13.566;2023-02-03T06:42:25;56.90;;;21.30;;
5678;SDS011;2862;52.560;13.566;2023-02-03T06:52:29;56.40;;;21.23;;
5678;SDS011;2862;52.560;13.566;2023-02-03T07:02:33;63.50;;;21.90;;
5678;SDS011;2862;52.560;13.566;2023-02-03T07:12:36;54.30;;;21.20;;
5678;SDS011;2862;52.560;13.566;2023-02-03T07:22:40;46.43;;;20.23;;
5678;SDS011;2862;52.560;13.566;2023-02-03T07:32:47;47.10;;;18.47;;
5678;SDS011;2862;52.560;13.566;2023-02-03T07:42:53;52.33;;;17.17;;
5678;SDS011;2862;52.560;13.566;2023-02-03T07:52:56;34.07;;;15.10;;
5678;SDS011;2862;52.560;13.566;2023-02-03T08:02:59;35.93;;;11.93;;
5678;SDS011;2862;52.560;13.566;2023-02-03T08:13:02;33.63;;;12.23;;
5678;SDS011;2862;52.560;13.566;2023-02-03T08:23:07;33.13;;;11.20;;
5678;SDS011;2862;52.560;13.566;2023-02-03T08:33:10;26.87;;;10.60;;
5678;SDS011;2862;52.560;13.566;2023-02-03T08:43:13;26.03;;;9.50;;
5678;SDS011;2862;52.560;13.566;2023-02-03T08:53:16;25.50;;;8.70;;
5678;SDS011;2862;52.560;13.566;2023-02-03T09:03:20;22.63;;;6.87;;
5678;SDS011;2862;52.560;13.566;2023-02-03T09:13:24;23.40;;;7.07;;
5678;SDS011;2862;52.560;13.566;2023-02-03T09:23:28;21.37;;;6.20;;
5678;SDS011;2862;52.560;13.566;2023-02-03T09:33:31;23.87;;;6.77;;
5678;SDS011;2862;52.560;13.566;2023-02-03T09:43:37;19.67;;;4.77;;
5678;SDS011;2862;52.560;13.566;2023-02-03T09:53:47;17.60;;;4.20;;
5678;SDS011;2862;52.560;13.566;2023-02-03T10:04:00;19.93;;;4.50;;
5678;SDS011;2862;52.560;13.566;2023-02-03T10:14:17;16.10;;;2.90;;
5678;SDS011;2862;52.560;13.566;2023-02-03T10:24:34;17.13;;;2.70;;
5678;SDS011;2862;52.560;13.566;2023-02-03T10:34:42;14.60;;;1.87;;
5678;SDS011;2862;52.560;13.566;2023-02-03T10:44:51;26.90;;;10.90;;
5678;SDS011;2862;52.560;13.566;2023-02-03T10:55:03;16.17;;;0.50;;
5678;SDS011;2862;52.560;13.566;2023-02-03T11:05:17;29.53;;;6.90;;
5678;SDS011;2862;52.560;13.566;2023-02-03T11:15:22;20.60;;;0.70;;
5678;SDS011;2862;52.560;13.566;2023-02-03T11:25:27;23.93;;;0.70;;
5678;SDS011;2862;52.560;13.566;2023-02-03T11:35:34;24.93;;;0.80;;
5678;SDS011;2862;52.560;13.566;2023-02-03T11:45:40;22.63;;;0.80;;
5678;SDS011;2862;52.560;13.566;2023-02-03T11:55:48;28.60;;;2.53;;
5678;SDS011;2862;52.560;13.566;2023-02-03T12:06:12;28.43;;;1.10;;
5678;SDS011;2862;52.560;13.566;2023-02-03T12:16:30;36.50;;;2.37;;
5678;SDS011;2862;52.560;13.566;2023-02-03T12:26:55;32.90;;;2.07;;
5678;SDS011;2862;52.560;13.566;2023-02-03T12:37:07;42.73;;;2.60;;
5678;SDS011;2862;52.560;13.566;2023-02-03T12:47:17;49.90;;;4.37;;
5678;SDS011;2862;52.560;13.566;2023-02-03T12:57:27;16.27;;;0.50;;
5678;SDS011;2862;52.560;13.566;2023-02-03T13:07:37;16.90;;;0.73;;
5678;SDS011;2862;52.560;13.566;2023-02-03T13:17:47;29.60;;;1.30;;
5678;SDS011;2862;52.560;13.566;2023-02-03T13:28:04;19.93;;;1.20;;
5678;SDS011;2862;52.560;13.566;2023-02-03T13:48:54;35.23;;;1.77;;
5678;SDS011;2862;52.560;13.566;2023-02-03T13:59:02;36.00;;;1.73;;
5678;SDS011;2862;52.560;13.566;2023-02-03T14:09:19;36.23;;;2.93;;
5678;SDS011;2862;52.560;13.566;2023-02-03T14:30:03;58.73;;;10.30;;
5678;SDS011;2862;52.560;13.566;2023-02-03T14:40:29;44.13;;;3.57;;
5678;SDS011;2862;52.560;13.566;2023-02-03T14:50:48;48.57;;;4.00;;
5678;SDS011;2862;52.560;13.566;2023-02-03T15:01:00;59.10;;;2.40;;
5678;SDS011;2862;52.560;13.566;2023-02-03T15:21:45;43.33;;;4.30;;
5678;SDS011;2862;52.560;13.566;2023-02-03T15:31:49;40.13;;;3.47;;
5678;SDS011;2862;52.560;13.566;2023-02-03T15:41:58;30.33;;;2.03;;
5678;SDS011;2862;52.560;13.566;2023-02-03T15:52:05;62.23;;;2.77;;
5678;SDS011;2862;52.560;13.566;2023-02-03T16:02:14;45.47;;;5.03;;
5678;SDS011;2862;52.560;13.566;2023-02-03T16:12:23;47.23;;;2.60;;
5678;SDS011;2862;52.560;13.566;2023-02-03T16:22:28;38.67;;;2.67;;
5678;SDS011;2862;52.560;13.566;2023-02-03T16:32:33;37.00;;;2.40;;
5678;SDS011;2862;52.560;13.566;2023-02-03T16:42:54;36.70;;;2.00;;
5678;SDS011;2862;52.560;13.566;2023-02-03T16:53:17;25.57;;;1.83;;
5678;SDS011;2862;52.560;13.566;2023-02-03T17:03:22;37.10;;;2.57;;
5678;SDS011;2862;52.560;13.566;2023-02-03T17:13:29;29.00;;;2.03;;
5678;SDS011;2862;52.560;13.566;2023-02-03T17:23:31;42.73;;;3.37;;
5678;SDS011;2862;52.560;13.566;2023-02-03T17:33:35;37.07;;;3.47;;
5678;SDS011;2862;52.560;13.566;2023-02-03T17:43:39;27.53;;;2.63;;
5678;SDS011;2862;52.560;13.566;2023-02-03T17:54:01;35.00;;;2.87;;
5678;SDS011;2862;52.560;13.566;2023-02-03T18:04:07;37.37;;;2.90;;
5678;SDS011;2862;52.560;13.566;2023-02-03T18:14:12;28.57;;;2.27;;
5678;SDS011;2862;52.560;13.566;2023-02-03T18:24:16;40.40;;;2.50;;
5678;SDS011;2862;52.560;13.566;2023-02-03T18:34:24;36.00;;;2.17;;
5678;SDS011;2862;52.560;13.566;2023-02-03T18:44:27;36.23;;;3.10;;
5678;SDS011;2862;52.560;13.566;2023-02-03T18:54:34;30.00;;;2.10;;
5678;SDS011;2862;52.560;13.566;2023-02-03T19:04:36;28.03;;;1.90;;
5678;SDS011;2862;52.560;13.566;2023-02-03T19:14:42;22.57;;;1.30;;
5678;SDS011;2862;52.560;13.566;2023-02-03T19:24:45;26.33;;;1.20;;
5678;SDS011;2862;52.560;13.566;2023-02-03T19:34:49;23.27;;;1.20;;
5678;SDS011;2862;52.560;13.566;2023-02-03T19:44:52;25.40;;;1.23;;
5678;SDS011;2862;52.560;13.566;2023-02-03T19:54:58;21.20;;;1.00;;
5678;SDS011;2862;52.560;13.566;2023-02-03T20:05:01;18.50;;;1.00;;
5678;SDS011;2862;52.560;13.566;2023-02-03T20:15:06;24.00;;;1.10;;
5678;SDS011;2862;52.560;13.566;2023-02-03T20:25:09;22.30;;;2.40;;
5678;SDS011;2862;52.560;13.566;2023-02-03T20:35:15;18.70;;;0.57;;
5678;SDS011;2862;52.560;13.566;2023-02-03T20:45:38;25.27;;;0.50;;
5678;SDS011;2862;52.560;13.566;2023-02-03T20:55:47;17.97;;;0.60;;
5678;SDS011;2862;52.560;13.566;2023-02-03T21:05:50;16.27;;;0.50;;
5678;SDS011;2862;52.560;13.566;2023-02-03T21:15:56;14.67;;;0.30;;
5678;SDS011;2862;52.560;13.566;2023-02-03T21:26:12;12.13;;;0.30;;
5678;SDS011;2862;52.560;13.566;2023-02-03T21:36:20;10.70;;;0.23;;
5678;SDS011;2862;52.560;13.566;2023-02-03T21:46:25;9.67;;;0.20;;
5678;SDS011;2862;52.560;13.566;2023-02-03T21:56:36;11.00;;;0.30;;
5678;SDS011;2862;52.560;13.566;2023-02-03T22:06:41;12.13;;;0.30;;
5678;SDS011;2862;52.560;13.566;2023-02-03T22:16:47;11.10;;;0.20;;
5678;SDS011;2862;52.560;13.566;2023-02-03T22:26:51;10.37;;;0.20;;
5678;SDS011;2862;52.560;13.566;2023-02-03T22:36:56;10.63;;;0.30;;
5678;SDS011;2862;52.560;13.566;2023-02-03T22:46:59;12.60;;;0.20;;
5678;SDS011;2862;52.560;13.566;2023-02-03T22:57:06;10.67;;;0.40;;
5678;SDS011;2862;52.560;13.566;2023-02-03T23:07:10;11.67;;;0.30;;
5678;SDS011;2862;52.560;13.566;2023-02-03T23:17:15;10.57;;;0.30;;
5678;SDS011;2862;52.560;13.566;2023-02-03T23:27:18;11.67;;;0.30;;
5678;SDS011;2862;52.560;13.566;2023-02-03T23:37:22;17.77;;;0.30;;
5678;SDS011;2862;52.560;13.566;2023-02-03T23:47:25;12.30;;;0.67;;
5678;SDS011;2862;52.560;13.566;2023-02-03T23:57:30;11.67;;;0.50;;
